createdAt,value
2023-03-19T00:00:43.933Z,96113.94
2023-03-19T00:03:10.972Z,96115.63
2023-03-19T00:05:37.964Z,96117.91
2023-03-19T00:08:05.515Z,96128.25
2023-03-19T00:10:32.352Z,96129.94
2023-03-19T00:12:59.186Z,96130.78
2023-03-19T00:15:26.000Z,96119.28
2023-03-19T00:17:54.240Z,96118.66
2023-03-19T00:20:22.143Z,96116.66
2023-03-19T00:22:48.992Z,96109.75
2023-03-19T00:25:15.894Z,96114.38
2023-03-19T00:27:43.863Z,96118.81
2023-03-19T00:30:11.584Z,96116.44
2023-03-19T00:32:39.404Z,96123.09
2023-03-19T00:35:08.224Z,96127.19
2023-03-19T00:37:36.288Z,96127.41
2023-03-19T00:40:04.436Z,96133.69
2023-03-19T00:42:31.883Z,96139.41
2023-03-19T00:44:58.846Z,96136.16
2023-03-19T00:47:26.974Z,96135.34
2023-03-19T00:49:53.910Z,96137.78
2023-03-19T00:52:20.775Z,96144.03
2023-03-19T00:54:47.589Z,96143.59
2023-03-19T00:57:14.435Z,96149.84
2023-03-19T00:59:41.257Z,96153.09
2023-03-19T01:02:08.222Z,96154.28
2023-03-19T01:04:35.403Z,96149.00
2023-03-19T01:07:02.276Z,96142.53
2023-03-19T01:09:29.075Z,96141.53
2023-03-19T01:11:55.880Z,96146.19
2023-03-19T01:14:23.027Z,96147.81
2023-03-19T01:16:49.910Z,96147.81
2023-03-19T01:19:16.802Z,96149.00
2023-03-19T01:21:46.360Z,96148.97
2023-03-19T01:24:13.666Z,96148.94
2023-03-19T01:26:40.590Z,96150.75
2023-03-19T01:29:08.124Z,96150.09
2023-03-19T01:31:36.349Z,96144.78
2023-03-19T01:34:03.985Z,96145.16
2023-03-19T01:36:31.457Z,96141.13
2023-03-19T01:38:58.248Z,96141.13
2023-03-19T01:41:25.091Z,96144.72
2023-03-19T01:43:51.927Z,96157.63
2023-03-19T01:46:33.394Z,96158.81
2023-03-19T01:49:07.261Z,96151.84
2023-03-19T01:51:45.996Z,96145.38
2023-03-19T01:54:18.394Z,96147.75
2023-03-19T01:56:50.413Z,96148.66
2023-03-19T01:59:31.851Z,96156.53
2023-03-19T02:02:00.836Z,96150.16
2023-03-19T02:04:31.631Z,96150.16
2023-03-19T02:07:01.206Z,96157.00
2023-03-19T02:09:29.348Z,96147.75
2023-03-19T02:11:57.681Z,96155.41
2023-03-19T02:14:24.894Z,96153.34
2023-03-19T02:16:52.729Z,96150.47
2023-03-19T02:19:42.205Z,96157.53
2023-03-19T02:22:11.797Z,96156.13
2023-03-19T02:25:01.792Z,96166.66
2023-03-19T02:27:28.629Z,96165.41
2023-03-19T02:29:55.431Z,96157.41
2023-03-19T02:32:22.294Z,96156.22
2023-03-19T02:34:49.295Z,96159.47
2023-03-19T02:37:32.004Z,96158.25
2023-03-19T02:40:16.646Z,96164.72
2023-03-19T02:42:43.407Z,96171.22
2023-03-19T02:45:11.533Z,96172.47
2023-03-19T02:47:38.286Z,96171.28
2023-03-19T02:50:06.297Z,96156.78
2023-03-19T02:52:33.281Z,96164.03
2023-03-19T02:55:00.205Z,96166.03
2023-03-19T02:57:27.089Z,96156.38
2023-03-19T02:59:53.886Z,96154.22
2023-03-19T03:02:20.831Z,96157.63
2023-03-19T03:04:48.808Z,96153.22
2023-03-19T03:07:15.608Z,96150.59
2023-03-19T03:09:42.441Z,96156.84
2023-03-19T03:12:09.584Z,96150.75
2023-03-19T03:14:36.421Z,96153.94
2023-03-19T03:17:03.249Z,96153.94
2023-03-19T03:19:30.068Z,96155.94
2023-03-19T03:21:56.879Z,96163.72
2023-03-19T03:24:24.226Z,96171.72
2023-03-19T03:26:51.019Z,96175.06
2023-03-19T03:29:18.131Z,96183.19
2023-03-19T03:31:45.032Z,96188.13
2023-03-19T03:34:11.984Z,96196.47
2023-03-19T03:36:38.882Z,96198.84
2023-03-19T03:39:05.748Z,96200.84
2023-03-19T03:41:33.130Z,96204.97
2023-03-19T03:43:59.936Z,96216.50
2023-03-19T03:46:26.758Z,96212.91
2023-03-19T03:48:53.570Z,96207.44
2023-03-19T03:51:20.592Z,96204.72
2023-03-19T03:53:47.469Z,96206.34
2023-03-19T03:56:14.553Z,96203.78
2023-03-19T03:58:41.655Z,96195.19
2023-03-19T04:01:11.822Z,96207.47
2023-03-19T04:03:38.638Z,96199.91
2023-03-19T04:06:06.039Z,96203.09
2023-03-19T04:08:32.890Z,96203.09
2023-03-19T04:10:59.745Z,96198.38
2023-03-19T04:13:27.598Z,96201.59
2023-03-19T04:15:56.037Z,96206.34
2023-03-19T04:18:22.848Z,96217.50
2023-03-19T04:20:49.593Z,96221.44
2023-03-19T04:23:16.752Z,96231.50
2023-03-19T04:25:43.525Z,96229.66
2023-03-19T04:28:10.430Z,96225.50
2023-03-19T04:30:37.851Z,96229.59
2023-03-19T04:33:05.077Z,96220.56
2023-03-19T04:35:31.925Z,96217.19
2023-03-19T04:37:58.750Z,96217.81
2023-03-19T04:40:25.525Z,96219.94
2023-03-19T04:42:52.357Z,96230.19
2023-03-19T04:45:19.306Z,96237.47
2023-03-19T04:47:46.113Z,96226.53
2023-03-19T04:50:13.926Z,96231.78
2023-03-19T04:52:40.737Z,96224.94
2023-03-19T04:55:08.890Z,96230.53
2023-03-19T04:57:35.694Z,96231.28
2023-03-19T05:00:02.530Z,96234.69
2023-03-19T05:02:29.297Z,96237.22
2023-03-19T05:04:56.291Z,96228.03
2023-03-19T05:07:23.055Z,96220.78
2023-03-19T05:09:50.065Z,96228.03
2023-03-19T05:12:17.005Z,96232.78
2023-03-19T05:14:43.873Z,96236.97
2023-03-19T05:17:11.299Z,96240.75
2023-03-19T05:19:39.414Z,96251.09
2023-03-19T05:22:06.382Z,96257.88
2023-03-19T05:24:33.216Z,96255.69
2023-03-19T05:27:00.098Z,96272.34
2023-03-19T05:29:27.090Z,96276.63
2023-03-19T05:31:54.181Z,96265.25
2023-03-19T05:34:21.428Z,96263.97
2023-03-19T05:36:48.373Z,96274.50
2023-03-19T05:39:15.256Z,96269.50
2023-03-19T05:41:42.040Z,96279.66
2023-03-19T05:44:09.113Z,96282.19
2023-03-19T05:46:36.364Z,96280.69
2023-03-19T05:49:04.368Z,96281.19
2023-03-19T05:51:31.493Z,96288.94
2023-03-19T05:53:58.303Z,96291.44
2023-03-19T05:56:25.270Z,96289.16
2023-03-19T05:58:52.084Z,96294.06
2023-03-19T06:01:18.971Z,96301.47
2023-03-19T06:03:45.941Z,96302.69
2023-03-19T06:06:12.781Z,96307.47
2023-03-19T06:08:39.717Z,96318.78
2023-03-19T06:11:06.811Z,96327.28
2023-03-19T06:13:33.612Z,96327.69
2023-03-19T06:16:01.245Z,96336.16
2023-03-19T06:18:28.135Z,96338.28
2023-03-19T06:20:54.962Z,96343.25
2023-03-19T06:23:21.780Z,96337.25
2023-03-19T06:25:48.666Z,96343.00
2023-03-19T06:28:15.572Z,96339.97
2023-03-19T06:30:42.456Z,96334.97
2023-03-19T06:33:09.264Z,96342.38
2023-03-19T06:35:36.411Z,96338.25
2023-03-19T06:38:03.254Z,96341.16
2023-03-19T06:40:30.083Z,96338.84
2023-03-19T06:42:57.013Z,96336.13
2023-03-19T06:45:23.801Z,96351.63
2023-03-19T06:47:53.488Z,96338.34
2023-03-19T06:50:20.545Z,96341.22
2023-03-19T06:52:47.392Z,96346.09
2023-03-19T06:55:14.414Z,96339.25
2023-03-19T06:57:41.413Z,96355.47
2023-03-19T07:00:11.469Z,96353.47
2023-03-19T07:02:38.274Z,96363.22
2023-03-19T07:05:05.787Z,96372.13
2023-03-19T07:07:32.670Z,96366.44
2023-03-19T07:09:59.533Z,96378.56
2023-03-19T07:12:27.861Z,96384.84
2023-03-19T07:14:58.644Z,96376.53
2023-03-19T07:17:26.811Z,96383.44
2023-03-19T07:19:53.666Z,96387.06
2023-03-19T07:22:20.503Z,96387.06
2023-03-19T07:24:47.387Z,96379.28
2023-03-19T07:27:14.230Z,96397.06
2023-03-19T07:29:41.067Z,96389.69
2023-03-19T07:32:10.383Z,96403.06
2023-03-19T07:34:37.196Z,96411.22
2023-03-19T07:37:04.052Z,96416.56
2023-03-19T07:39:31.010Z,96426.19
2023-03-19T07:41:57.957Z,96425.81
2023-03-19T07:44:24.724Z,96427.97
2023-03-19T07:46:51.516Z,96431.16
2023-03-19T07:49:18.293Z,96426.88
2023-03-19T07:51:45.176Z,96430.28
2023-03-19T07:54:11.989Z,96433.03
2023-03-19T07:56:38.810Z,96426.78
2023-03-19T07:59:05.847Z,96431.53
2023-03-19T08:01:32.780Z,96433.50
2023-03-19T08:03:59.629Z,96447.88
2023-03-19T08:06:26.610Z,96437.22
2023-03-19T08:08:53.425Z,96447.72
2023-03-19T08:11:20.261Z,96447.22
2023-03-19T08:13:47.087Z,96449.97
2023-03-19T08:16:14.009Z,96450.03
2023-03-19T08:18:40.984Z,96451.34
2023-03-19T08:21:07.983Z,96444.88
2023-03-19T08:23:35.532Z,96440.63
2023-03-19T08:26:02.361Z,96443.44
2023-03-19T08:28:29.189Z,96444.72
2023-03-19T08:30:56.530Z,96436.53
2023-03-19T08:33:23.485Z,96449.41
2023-03-19T08:35:50.480Z,96455.31
2023-03-19T08:38:17.381Z,96455.44
2023-03-19T08:40:44.194Z,96460.84
2023-03-19T08:43:11.133Z,96459.47
2023-03-19T08:45:37.978Z,96460.94
2023-03-19T08:48:04.787Z,96459.59
2023-03-19T08:50:32.335Z,96452.22
2023-03-19T08:52:59.383Z,96466.00
2023-03-19T08:55:26.171Z,96461.63
2023-03-19T08:57:52.956Z,96463.25
2023-03-19T09:00:20.139Z,96468.06
2023-03-19T09:02:47.072Z,96473.47
2023-03-19T09:05:13.851Z,96483.59
2023-03-19T09:07:40.667Z,96477.75
2023-03-19T09:10:08.112Z,96490.13
2023-03-19T09:12:34.948Z,96491.13
2023-03-19T09:15:01.742Z,96497.06
2023-03-19T09:17:28.648Z,96492.56
2023-03-19T09:19:55.595Z,96490.94
2023-03-19T09:22:22.423Z,96493.09
2023-03-19T09:24:49.260Z,96501.41
2023-03-19T09:27:16.127Z,96500.25
2023-03-19T09:29:42.953Z,96507.81
2023-03-19T09:32:09.894Z,96505.56
2023-03-19T09:34:36.722Z,96508.94
2023-03-19T09:37:03.532Z,96505.59
2023-03-19T09:39:30.353Z,96506.66
2023-03-19T09:42:16.075Z,96514.00
2023-03-19T09:44:45.644Z,96510.22
2023-03-19T09:47:29.709Z,96517.41
2023-03-19T09:50:05.191Z,96515.06
2023-03-19T09:52:50.369Z,96519.41
2023-03-19T09:55:40.607Z,96508.00
2023-03-19T09:58:16.319Z,96511.59
2023-03-19T10:00:44.643Z,96510.34
2023-03-19T10:03:35.613Z,96512.75
2023-03-19T10:06:05.613Z,96515.75
2023-03-19T10:09:18.501Z,96511.88
2023-03-19T10:12:01.218Z,96517.50
2023-03-19T10:15:14.918Z,96517.09
2023-03-19T10:18:05.597Z,96519.84
2023-03-19T10:20:41.214Z,96522.00
2023-03-19T10:23:20.084Z,96518.25
2023-03-19T10:25:47.434Z,96512.97
2023-03-19T10:28:17.360Z,96512.53
2023-03-19T10:30:58.295Z,96516.97
2023-03-19T10:33:34.874Z,96520.78
2023-03-19T10:36:06.982Z,96521.72
2023-03-19T10:38:41.292Z,96527.72
2023-03-19T10:41:41.348Z,96527.88
2023-03-19T10:44:19.940Z,96525.75
2023-03-19T10:46:47.244Z,96523.34
2023-03-19T10:49:15.720Z,96518.28
2023-03-19T10:51:49.002Z,96510.16
2023-03-19T10:54:27.026Z,96503.09
2023-03-19T10:57:00.433Z,96509.13
2023-03-19T10:59:29.931Z,96520.13
2023-03-19T11:02:16.182Z,96524.34
2023-03-19T11:04:42.948Z,96512.78
2023-03-19T11:07:18.186Z,96507.13
2023-03-19T11:09:48.993Z,96511.19
2023-03-19T11:12:24.499Z,96508.09
2023-03-19T11:14:57.414Z,96506.97
2023-03-19T11:17:38.429Z,96504.41
2023-03-19T11:20:27.351Z,96503.66
2023-03-19T11:22:57.414Z,96504.53
2023-03-19T11:25:31.967Z,96498.84
2023-03-19T11:28:14.649Z,96496.84
2023-03-19T11:31:19.970Z,96499.28
2023-03-19T11:34:01.906Z,96492.75
2023-03-19T11:37:05.616Z,96483.22
2023-03-19T11:40:10.650Z,96483.22
2023-03-19T11:42:43.713Z,96478.97
2023-03-19T11:45:35.492Z,96481.84
2023-03-19T11:48:12.442Z,96475.81
2023-03-19T11:50:51.813Z,96469.56
2023-03-19T11:53:38.289Z,96472.59
2023-03-19T11:56:33.402Z,96471.03
2023-03-19T11:59:55.052Z,96465.47
2023-03-19T12:02:41.867Z,96458.72
2023-03-19T12:06:11.791Z,96458.53
2023-03-19T12:09:04.009Z,96455.28
2023-03-19T12:11:43.610Z,96451.84
2023-03-19T12:14:37.180Z,96458.47
2023-03-19T12:17:36.307Z,96454.03
2023-03-19T12:20:31.324Z,96456.91
2023-03-19T12:23:26.549Z,96458.84
2023-03-19T12:26:05.027Z,96451.97
2023-03-19T12:28:36.140Z,96445.69
2023-03-19T12:31:27.918Z,96443.75
2023-03-19T12:34:29.662Z,96444.81
2023-03-19T12:37:32.417Z,96444.88
2023-03-19T12:40:20.021Z,96436.97
2023-03-19T12:42:46.851Z,96428.72
2023-03-19T12:45:26.424Z,96424.91
2023-03-19T12:48:08.454Z,96424.44
2023-03-19T12:50:39.930Z,96422.41
2023-03-19T12:53:26.702Z,96427.09
2023-03-19T12:56:00.336Z,96425.22
2023-03-19T12:58:46.562Z,96430.59
2023-03-19T13:01:27.806Z,96431.84
2023-03-19T13:04:19.299Z,96428.50
2023-03-19T13:06:59.183Z,96423.84
2023-03-19T13:09:40.804Z,96424.78
2023-03-19T13:12:18.773Z,96421.84
2023-03-19T13:15:25.883Z,96425.94
2023-03-19T13:18:08.966Z,96422.28
2023-03-19T13:20:49.161Z,96411.00
2023-03-19T13:23:26.388Z,96410.59
2023-03-19T13:25:57.681Z,96417.50
2023-03-19T13:28:31.703Z,96416.44
2023-03-19T13:31:02.465Z,96420.19
2023-03-19T13:33:30.074Z,96421.59
2023-03-19T13:35:57.693Z,96428.09
2023-03-19T13:38:47.095Z,96413.50
2023-03-19T13:41:35.406Z,96412.72
2023-03-19T13:45:03.694Z,96413.50
2023-03-19T13:47:33.456Z,96414.66
2023-03-19T13:50:21.065Z,96409.66
2023-03-19T13:52:52.491Z,96403.47
2023-03-19T13:55:24.992Z,96405.44
2023-03-19T13:58:17.813Z,96391.88
2023-03-19T14:00:45.072Z,96399.47
2023-03-19T14:03:32.165Z,96394.72
2023-03-19T14:06:00.443Z,96398.47
2023-03-19T14:08:47.646Z,96393.44
2023-03-19T14:11:30.047Z,96395.38
2023-03-19T14:14:03.313Z,96391.66
2023-03-19T14:16:42.592Z,96393.75
2023-03-19T14:19:17.973Z,96399.00
2023-03-19T14:21:59.894Z,96395.06
2023-03-19T14:25:19.319Z,96392.53
2023-03-19T14:27:52.549Z,96396.81
2023-03-19T14:30:40.632Z,96386.53
2023-03-19T14:33:20.951Z,96379.88
2023-03-19T14:35:49.930Z,96378.78
2023-03-19T14:38:36.962Z,96378.41
2023-03-19T14:41:06.368Z,96380.22
2023-03-19T14:43:58.222Z,96373.75
2023-03-19T14:47:03.086Z,96388.38
2023-03-19T14:50:01.331Z,96382.44
2023-03-19T14:52:44.122Z,96374.34
2023-03-19T14:55:15.561Z,96383.50
2023-03-19T14:57:43.383Z,96379.03
2023-03-19T15:00:20.518Z,96363.41
2023-03-19T15:02:52.057Z,96369.78
2023-03-19T15:05:36.782Z,96365.94
2023-03-19T15:08:07.559Z,96360.13
2023-03-19T15:11:13.370Z,96363.53
2023-03-19T15:14:14.596Z,96360.00
2023-03-19T15:17:12.041Z,96359.56
2023-03-19T15:19:40.258Z,96349.34
2023-03-19T15:22:15.926Z,96349.16
2023-03-19T15:24:43.181Z,96345.34
2023-03-19T15:27:25.974Z,96346.63
2023-03-19T15:29:53.935Z,96340.16
2023-03-19T15:32:54.158Z,96353.28
2023-03-19T15:35:31.645Z,96351.09
2023-03-19T15:38:03.496Z,96354.22
2023-03-19T15:40:32.783Z,96352.06
2023-03-19T15:43:04.720Z,96352.31
2023-03-19T15:45:36.258Z,96350.97
2023-03-19T15:48:21.562Z,96350.47
2023-03-19T15:50:52.997Z,96346.16
2023-03-19T15:53:25.242Z,96343.09
2023-03-19T15:55:54.135Z,96350.28
2023-03-19T15:58:31.080Z,96346.19
2023-03-19T16:01:01.083Z,96344.81
2023-03-19T16:03:38.238Z,96355.84
2023-03-19T16:06:29.690Z,96361.19
2023-03-19T16:09:19.509Z,96363.03
2023-03-19T16:11:47.057Z,96352.13
2023-03-19T16:14:39.614Z,96357.41
2023-03-19T16:17:17.948Z,96360.38
2023-03-19T16:19:56.362Z,96364.06
2023-03-19T16:22:28.718Z,96362.25
2023-03-19T16:24:56.136Z,96367.41
2023-03-19T16:27:40.233Z,96371.50
2023-03-19T16:30:22.408Z,96370.78
2023-03-19T16:33:06.621Z,96372.47
2023-03-19T16:35:35.037Z,96376.28
2023-03-19T16:38:22.135Z,96381.59
2023-03-19T16:41:10.788Z,96387.16
2023-03-19T16:43:44.154Z,96384.41
2023-03-19T16:46:13.326Z,96380.03
2023-03-19T16:48:40.203Z,96396.00
2023-03-19T16:51:20.109Z,96390.66
2023-03-19T16:53:48.709Z,96384.03
2023-03-19T16:56:16.438Z,96388.44
2023-03-19T16:58:45.102Z,96391.63
2023-03-19T17:01:20.515Z,96398.47
2023-03-19T17:03:48.740Z,96402.06
2023-03-19T17:06:17.089Z,96406.00
2023-03-19T17:08:44.945Z,96410.75
2023-03-19T17:11:36.809Z,96407.75
2023-03-19T17:14:06.218Z,96407.06
2023-03-19T17:16:33.815Z,96408.56
2023-03-19T17:19:00.718Z,96411.41
2023-03-19T17:21:33.245Z,96412.75
2023-03-19T17:24:20.766Z,96420.03
2023-03-19T17:26:47.715Z,96421.78
2023-03-19T17:29:14.525Z,96420.84
2023-03-19T17:31:41.370Z,96423.00
2023-03-19T17:34:20.989Z,96425.34
2023-03-19T17:36:55.942Z,96422.66
2023-03-19T17:39:24.349Z,96421.72
2023-03-19T17:41:52.117Z,96424.34
2023-03-19T17:44:18.914Z,96424.78
2023-03-19T17:46:54.186Z,96432.44
2023-03-19T17:49:22.637Z,96428.69
2023-03-19T17:51:50.769Z,96431.41
2023-03-19T17:54:18.578Z,96434.72
2023-03-19T17:56:45.390Z,96434.56
2023-03-19T17:59:12.836Z,96428.78
2023-03-19T18:01:45.035Z,96438.03
2023-03-19T18:04:16.392Z,96437.41
2023-03-19T18:06:55.444Z,96439.09
2023-03-19T18:09:28.141Z,96440.75
2023-03-19T18:11:55.467Z,96438.97
2023-03-19T18:14:22.276Z,96440.91
2023-03-19T18:16:49.449Z,96439.06
2023-03-19T18:19:27.512Z,96441.88
2023-03-19T18:21:54.266Z,96443.06
2023-03-19T18:24:21.082Z,96443.34
2023-03-19T18:26:48.017Z,96444.09
2023-03-19T18:29:16.252Z,96444.47
2023-03-19T18:31:49.121Z,96446.22
2023-03-19T18:34:17.155Z,96441.53
2023-03-19T18:36:44.186Z,96448.34
2023-03-19T18:39:16.140Z,96446.91
2023-03-19T18:41:43.737Z,96443.44
2023-03-19T18:44:12.095Z,96456.84
2023-03-19T18:46:40.507Z,96448.69
2023-03-19T18:49:27.222Z,96449.88
2023-03-19T18:52:02.504Z,96444.19
2023-03-19T18:54:31.347Z,96444.59
2023-03-19T18:57:00.230Z,96456.19
2023-03-19T18:59:30.943Z,96455.97
2023-03-19T19:02:18.016Z,96459.06
2023-03-19T19:04:44.933Z,96463.84
2023-03-19T19:07:14.984Z,96471.97
2023-03-19T19:09:42.222Z,96470.31
2023-03-19T19:12:13.440Z,96471.63
2023-03-19T19:14:40.832Z,96476.97
2023-03-19T19:17:17.087Z,96476.16
2023-03-19T19:19:44.070Z,96472.34
2023-03-19T19:22:16.850Z,96485.72
2023-03-19T19:24:44.574Z,96481.63
2023-03-19T19:27:26.751Z,96489.72
2023-03-19T19:29:54.017Z,96489.31
2023-03-19T19:32:26.166Z,96494.56
2023-03-19T19:34:53.448Z,96488.88
2023-03-19T19:37:23.090Z,96496.41
2023-03-19T19:39:51.155Z,96500.66
2023-03-19T19:42:21.456Z,96499.03
2023-03-19T19:44:55.570Z,96504.66
2023-03-19T19:47:22.767Z,96502.84
2023-03-19T19:49:49.609Z,96506.25
2023-03-19T19:52:19.088Z,96530.06
2023-03-19T19:54:46.768Z,96533.03
2023-03-19T19:57:22.355Z,96537.56
2023-03-19T19:59:50.888Z,96534.41
2023-03-19T20:02:29.309Z,96542.78
2023-03-19T20:04:57.882Z,96542.59
2023-03-19T20:07:24.726Z,96549.25
2023-03-19T20:09:51.580Z,96561.00
2023-03-19T20:12:21.122Z,96559.38
2023-03-19T20:14:48.819Z,96559.75
2023-03-19T20:17:21.160Z,96558.03
2023-03-19T20:19:48.387Z,96562.91
2023-03-19T20:22:15.305Z,96573.84
2023-03-19T20:24:42.357Z,96571.81
2023-03-19T20:27:19.285Z,96565.66
2023-03-19T20:29:46.234Z,96567.38
2023-03-19T20:32:38.306Z,96577.97
2023-03-19T20:35:18.467Z,96573.50
2023-03-19T20:37:45.400Z,96567.97
2023-03-19T20:40:13.776Z,96573.50
2023-03-19T20:42:41.440Z,96571.84
2023-03-19T20:45:22.812Z,96578.38
2023-03-19T20:47:54.704Z,96573.56
2023-03-19T20:50:28.633Z,96584.97
2023-03-19T20:53:03.520Z,96590.28
2023-03-19T20:55:34.190Z,96586.19
2023-03-19T20:58:03.728Z,96579.28
2023-03-19T21:00:33.369Z,96579.63
2023-03-19T21:03:01.843Z,96576.72
2023-03-19T21:05:36.461Z,96579.00
2023-03-19T21:08:06.545Z,96582.84
2023-03-19T21:10:43.086Z,96587.59
2023-03-19T21:13:16.629Z,96586.50
2023-03-19T21:15:49.596Z,96593.22
2023-03-19T21:18:17.034Z,96580.19
2023-03-19T21:20:47.981Z,96584.69
2023-03-19T21:23:34.682Z,96590.41
2023-03-19T21:26:23.711Z,96596.91
2023-03-19T21:29:05.465Z,96600.53
2023-03-19T21:31:33.335Z,96601.63
2023-03-19T21:34:01.162Z,96599.31
2023-03-19T21:36:28.958Z,96597.66
2023-03-19T21:38:56.256Z,96605.03
2023-03-19T21:41:30.038Z,96601.50
2023-03-19T21:44:20.012Z,96594.78
2023-03-19T21:46:48.223Z,96594.97
2023-03-19T21:49:15.798Z,96607.16
2023-03-19T21:51:46.837Z,96617.81
2023-03-19T21:54:15.597Z,96607.19
2023-03-19T21:56:45.395Z,96618.59
2023-03-19T21:59:19.419Z,96622.41
2023-03-19T22:01:46.589Z,96621.03
2023-03-19T22:04:13.421Z,96623.81
2023-03-19T22:06:40.338Z,96616.91
2023-03-19T22:09:07.694Z,96619.34
2023-03-19T22:11:37.873Z,96616.44
2023-03-19T22:14:19.742Z,96619.34
2023-03-19T22:16:47.752Z,96621.38
2023-03-19T22:19:17.733Z,96625.81
2023-03-19T22:21:45.499Z,96620.13
2023-03-19T22:24:12.310Z,96618.06
2023-03-19T22:26:42.058Z,96620.13
2023-03-19T22:29:19.934Z,96616.84
2023-03-19T22:31:52.391Z,96616.88
2023-03-19T22:34:23.215Z,96620.22
2023-03-19T22:36:50.410Z,96626.66
2023-03-19T22:39:17.637Z,96623.22
2023-03-19T22:41:47.781Z,96623.41
2023-03-19T22:44:31.323Z,96629.97
2023-03-19T22:47:00.647Z,96631.16
2023-03-19T22:49:28.278Z,96630.97
2023-03-19T22:51:55.972Z,96638.44
2023-03-19T22:54:22.823Z,96631.56
2023-03-19T22:56:49.681Z,96625.25
2023-03-19T22:59:16.522Z,96630.34
2023-03-19T23:01:46.712Z,96632.97
2023-03-19T23:04:26.639Z,96625.69
2023-03-19T23:06:55.493Z,96633.59
2023-03-19T23:09:29.379Z,96638.03
2023-03-19T23:11:57.745Z,96635.03
2023-03-19T23:14:30.080Z,96629.16
2023-03-19T23:17:03.313Z,96637.88
2023-03-19T23:19:36.715Z,96635.28
2023-03-19T23:22:06.889Z,96635.28
2023-03-19T23:24:35.133Z,96639.31
2023-03-19T23:27:03.438Z,96631.19
2023-03-19T23:29:41.183Z,96637.47
2023-03-19T23:32:11.373Z,96631.19
2023-03-19T23:34:54.005Z,96635.28
2023-03-19T23:37:24.312Z,96636.66
2023-03-19T23:39:51.116Z,96639.31
2023-03-19T23:42:27.691Z,96642.16
2023-03-19T23:44:58.577Z,96646.22
2023-03-19T23:47:25.724Z,96641.53
2023-03-19T23:49:52.610Z,96647.84
2023-03-19T23:52:19.417Z,96645.19
2023-03-19T23:54:46.616Z,96652.31
2023-03-19T23:57:15.627Z,96649.84
2023-03-19T23:59:44.823Z,96651.69
